»·PEaware :: SWA3479 KPDX-KBOI

SWA3479 :: KPDX-KBOI

FLIGHT INFORMATION

Flight Status: Arrived
Operator:
Southwest Airlines
More flights by this operator :: More flights under this callsign
Pilot: Ben F. (2808)
Aircraft: BOEING 737-300
(B733)
More flights by this aircraft type
Origin: KPDX Portland Intl
United States
Destination: KBOI Boise Air Terminal/Gowen
United States
More flights between these airports :: More routes between these airports
Route: WHAMY4 IMB HOSTS PARMO3
File this flight plan on PilotEdge
Remarks:
Altitude:
(Current/Filed)
33,000ft
Speed:
(Current/Filed)
429kts
Departed: 28-Oct-18 07:36 AM
Arrived: 28-Oct-18 08:24 AM
Distance/Time
Traveled:
298nm/0:48
Distance/Time
To Go:
Arrived

Flight Plot

Page will automatically refresh every two minutes.

Flight plan parsing failed; only flown route is shown


Map Options




Map Legend


Flown Route
Filed Route
Departure Airport
Arrival Airport
Navaid (VOR, NDB)
Fix

Horizontal Profiles

Position Reports

Time Latitude Longitude Heading Altitude Ground
Speed
28-Oct-18 07:08 45.590269 -122.598356 210 36ft 0kts
28-Oct-18 07:09 45.590269 -122.598356 210 36ft 0kts
28-Oct-18 07:10 45.590269 -122.598356 210 36ft 0kts
28-Oct-18 07:11 45.590269 -122.598356 210 36ft 0kts
28-Oct-18 07:12 45.590269 -122.598356 210 36ft 0kts
28-Oct-18 07:13 45.590269 -122.598356 210 36ft 0kts
28-Oct-18 07:14 45.590269 -122.598356 210 36ft 0kts
28-Oct-18 07:15 45.590269 -122.598356 210 36ft 0kts
28-Oct-18 07:16 45.590269 -122.598356 210 36ft 0kts
28-Oct-18 07:17 45.590269 -122.598356 210 36ft 0kts
28-Oct-18 07:18 45.590269 -122.598356 210 36ft 0kts
28-Oct-18 07:19 45.590269 -122.598356 210 36ft 0kts
28-Oct-18 07:20 45.590269 -122.598356 210 36ft 0kts
28-Oct-18 07:21 45.590269 -122.598356 210 36ft 0kts
28-Oct-18 07:22 45.590269 -122.598356 210 36ft 0kts
28-Oct-18 07:23 45.590269 -122.598356 210 36ft 0kts
28-Oct-18 07:24 45.590269 -122.598356 210 36ft 0kts
28-Oct-18 07:25 45.590269 -122.598356 210 36ft 0kts
28-Oct-18 07:26 45.590269 -122.598356 210 36ft 0kts
28-Oct-18 07:27 45.590345 -122.598291 211 36ft 2kts
28-Oct-18 07:28 45.590743 -122.597721 277 36ft 2kts
28-Oct-18 07:29 45.590684 -122.597516 298 36ft 0kts
28-Oct-18 07:30 45.590684 -122.597516 298 36ft 0kts
28-Oct-18 07:31 45.590762 -122.597716 298 36ft 2kts
28-Oct-18 07:32 45.592091 -122.598579 38 36ft 10kts
28-Oct-18 07:33 45.594529 -122.600315 298 36ft 15kts
28-Oct-18 07:34 45.595648 -122.600519 29 36ft 0kts
28-Oct-18 07:35 45.595648 -122.600519 29 36ft 0kts
28-Oct-18 07:36 45.595648 -122.600519 29 36ft 0kts
28-Oct-18 07:37 45.596227 -122.599538 95 36ft 11kts
28-Oct-18 07:38 45.584028 -122.568728 121 346ft 182kts
28-Oct-18 07:39 45.569337 -122.491131 101 2601ft 242kts
28-Oct-18 07:40 45.552429 -122.389145 107 5464ft 276kts
28-Oct-18 07:41 45.515448 -122.301465 153 8352ft 273kts
28-Oct-18 07:42 45.455894 -122.234276 146 10876ft 300kts
28-Oct-18 07:43 45.390089 -122.150331 147 12932ft 339kts
28-Oct-18 07:44 45.319468 -122.060614 147 14812ft 366kts
28-Oct-18 07:45 45.250211 -121.962381 123 15002ft 386kts
28-Oct-18 07:46 45.212875 -121.819592 117 14994ft 392kts
28-Oct-18 07:47 45.175400 -121.675983 117 14982ft 392kts
28-Oct-18 07:48 45.137116 -121.530486 118 17241ft 406kts
28-Oct-18 07:49 45.096928 -121.378625 118 19375ft 421kts
28-Oct-18 07:50 45.056507 -121.226531 119 21260ft 435kts
28-Oct-18 07:51 45.013515 -121.066128 119 23035ft 448kts
28-Oct-18 07:52 44.968980 -120.901113 119 24652ft 461kts
28-Oct-18 07:53 44.922650 -120.730649 119 26175ft 474kts
28-Oct-18 07:54 44.875709 -120.559842 119 27593ft 485kts
28-Oct-18 07:55 44.827273 -120.384228 120 29421ft 484kts
28-Oct-18 07:56 44.779808 -120.212963 121 30996ft 482kts
28-Oct-18 07:57 44.731164 -120.039045 121 32390ft 481kts
28-Oct-18 07:58 44.682225 -119.863821 121 32995ft 490kts
28-Oct-18 07:59 44.630983 -119.686463 121 33025ft 494kts
28-Oct-18 08:00 44.580106 -119.508639 121 33020ft 494kts
28-Oct-18 08:01 44.530089 -119.335108 122 33001ft 494kts
28-Oct-18 08:02 44.479515 -119.160507 122 33020ft 493kts
28-Oct-18 08:03 44.427887 -118.983892 122 33013ft 493kts
28-Oct-18 08:04 44.375442 -118.805776 120 33024ft 500kts
28-Oct-18 08:05 44.322277 -118.626379 120 33021ft 500kts
28-Oct-18 08:06 44.268981 -118.447889 120 33021ft 500kts
28-Oct-18 08:07 44.217203 -118.275478 121 32206ft 503kts
28-Oct-18 08:08 44.164043 -118.099640 120 29733ft 491kts
28-Oct-18 08:09 44.110633 -117.924506 120 27072ft 495kts
28-Oct-18 08:10 44.057216 -117.750343 119 24094ft 485kts
28-Oct-18 08:11 44.005070 -117.581532 119 21115ft 471kts
28-Oct-18 08:12 43.952731 -117.421000 119 18112ft 441kts
28-Oct-18 08:13 43.905756 -117.273240 119 15142ft 415kts
28-Oct-18 08:14 43.862072 -117.136736 119 12601ft 387kts
28-Oct-18 08:15 43.820255 -117.007242 117 10517ft 353kts
28-Oct-18 08:16 43.783176 -116.893325 115 9596ft 309kts
28-Oct-18 08:17 43.748944 -116.787722 116 8251ft 288kts
28-Oct-18 08:18 43.719017 -116.694272 116 7215ft 243kts
28-Oct-18 08:19 43.693575 -116.614983 115 6473ft 218kts
28-Oct-18 08:20 43.669892 -116.537863 115 5781ft 218kts
28-Oct-18 08:21 43.644656 -116.462218 116 5172ft 217kts
28-Oct-18 08:22 43.619563 -116.388191 116 5007ft 195kts
28-Oct-18 08:23 43.599477 -116.329053 117 4261ft 159kts
28-Oct-18 08:24 43.582195 -116.278203 116 3474ft 146kts
28-Oct-18 08:25 43.565967 -116.230699 114 2878ft 92kts
28-Oct-18 08:26 43.566288 -116.224028 4 2878ft 15kts
28-Oct-18 08:27 43.567158 -116.220741 22 2878ft 5kts

Navigation Log

Ident Type
Flight plan parsing failed, navigation log unavailable